sensor_id;sensor_type;location;lat;lon;timestamp;temperature;humidity
15543;DHT22;7873;52.230;12.856;2022-10-16T00:01:47;24.50;51.20
15543;DHT22;7873;52.230;12.856;2022-10-16T00:04:14;24.50;51.30
15543;DHT22;7873;52.230;12.856;2022-10-16T00:06:41;24.50;51.20
15543;DHT22;7873;52.230;12.856;2022-10-16T00:09:09;24.50;51.20
15543;DHT22;7873;52.230;12.856;2022-10-16T00:11:36;24.50;51.30
15543;DHT22;7873;52.230;12.856;2022-10-16T00:14:06;24.50;52.10
15543;DHT22;7873;52.230;12.856;2022-10-16T00:16:34;24.50;51.30
15543;DHT22;7873;52.230;12.856;2022-10-16T00:19:01;24.60;51.20
15543;DHT22;7873;52.230;12.856;2022-10-16T00:21:28;24.50;51.20
15543;DHT22;7873;52.230;12.856;2022-10-16T00:23:56;24.50;51.20
15543;DHT22;7873;52.230;12.856;2022-10-16T00:26:27;24.60;51.20
15543;DHT22;7873;52.230;12.856;2022-10-16T00:28:55;24.50;51.90
15543;DHT22;7873;52.230;12.856;2022-10-16T00:31:22;24.50;51.20
15543;DHT22;7873;52.230;12.856;2022-10-16T00:33:50;24.50;51.20
15543;DHT22;7873;52.230;12.856;2022-10-16T00:36:17;24.60;51.20
15543;DHT22;7873;52.230;12.856;2022-10-16T00:38:45;24.60;51.20
15543;DHT22;7873;52.230;12.856;2022-10-16T00:41:13;24.60;51.20
15543;DHT22;7873;52.230;12.856;2022-10-16T00:43:44;24.50;51.20
15543;DHT22;7873;52.230;12.856;2022-10-16T00:46:15;24.50;51.20
15543;DHT22;7873;52.230;12.856;2022-10-16T00:48:45;24.60;51.20
15543;DHT22;7873;52.230;12.856;2022-10-16T00:51:15;24.60;51.10
15543;DHT22;7873;52.230;12.856;2022-10-16T00:53:44;24.60;51.10
15543;DHT22;7873;52.230;12.856;2022-10-16T00:56:11;24.60;51.20
15543;DHT22;7873;52.230;12.856;2022-10-16T00:58:37;24.60;51.20
15543;DHT22;7873;52.230;12.856;2022-10-16T01:01:06;24.60;51.20
15543;DHT22;7873;52.230;12.856;2022-10-16T01:03:33;24.60;51.10
15543;DHT22;7873;52.230;12.856;2022-10-16T01:06:04;24.60;51.10
15543;DHT22;7873;52.230;12.856;2022-10-16T01:08:44;24.60;51.20
15543;DHT22;7873;52.230;12.856;2022-10-16T01:11:17;24.60;51.90
15543;DHT22;7873;52.230;12.856;2022-10-16T01:13:52;24.60;51.20
15543;DHT22;7873;52.230;12.856;2022-10-16T01:16:24;24.60;51.90
15543;DHT22;7873;52.230;12.856;2022-10-16T01:19:00;24.60;51.10
15543;DHT22;7873;52.230;12.856;2022-10-16T01:21:35;24.60;51.10
15543;DHT22;7873;52.230;12.856;2022-10-16T01:24:06;24.60;51.20
15543;DHT22;7873;52.230;12.856;2022-10-16T01:26:43;24.60;51.20
15543;DHT22;7873;52.230;12.856;2022-10-16T01:29:20;24.60;51.20
15543;DHT22;7873;52.230;12.856;2022-10-16T01:31:52;24.60;51.10
15543;DHT22;7873;52.230;12.856;2022-10-16T01:34:25;24.60;51.10
15543;DHT22;7873;52.230;12.856;2022-10-16T01:37:00;24.60;51.00
15543;DHT22;7873;52.230;12.856;2022-10-16T01:39:31;24.60;50.90
15543;DHT22;7873;52.230;12.856;2022-10-16T01:42:02;24.70;50.90
15543;DHT22;7873;52.230;12.856;2022-10-16T01:44:33;24.70;50.90
15543;DHT22;7873;52.230;12.856;2022-10-16T01:47:02;24.70;50.90
15543;DHT22;7873;52.230;12.856;2022-10-16T01:49:31;24.70;50.90
15543;DHT22;7873;52.230;12.856;2022-10-16T01:52:00;24.70;50.80
15543;DHT22;7873;52.230;12.856;2022-10-16T01:54:31;24.70;50.90
15543;DHT22;7873;52.230;12.856;2022-10-16T01:57:00;24.70;50.90
15543;DHT22;7873;52.230;12.856;2022-10-16T01:59:28;24.70;50.90
15543;DHT22;7873;52.230;12.856;2022-10-16T02:01:59;24.60;50.90
15543;DHT22;7873;52.230;12.856;2022-10-16T02:04:31;24.70;50.90
15543;DHT22;7873;52.230;12.856;2022-10-16T02:06:59;24.60;50.90
15543;DHT22;7873;52.230;12.856;2022-10-16T02:09:26;24.70;50.80
15543;DHT22;7873;52.230;12.856;2022-10-16T02:11:53;24.70;50.80
15543;DHT22;7873;52.230;12.856;2022-10-16T02:14:23;24.70;50.80
15543;DHT22;7873;52.230;12.856;2022-10-16T02:16:50;24.70;50.80
15543;DHT22;7873;52.230;12.856;2022-10-16T02:19:18;24.70;50.80
15543;DHT22;7873;52.230;12.856;2022-10-16T02:21:47;24.70;50.90
15543;DHT22;7873;52.230;12.856;2022-10-16T02:24:18;24.70;50.90
15543;DHT22;7873;52.230;12.856;2022-10-16T02:26:52;24.60;50.90
15543;DHT22;7873;52.230;12.856;2022-10-16T02:29:27;24.60;50.90
15543;DHT22;7873;52.230;12.856;2022-10-16T02:31:55;24.70;50.80
15543;DHT22;7873;52.230;12.856;2022-10-16T02:34:26;24.70;50.70
15543;DHT22;7873;52.230;12.856;2022-10-16T02:36:54;24.70;50.80
15543;DHT22;7873;52.230;12.856;2022-10-16T02:39:23;24.70;50.80
15543;DHT22;7873;52.230;12.856;2022-10-16T02:41:50;24.70;50.70
15543;DHT22;7873;52.230;12.856;2022-10-16T02:44:17;24.70;50.70
15543;DHT22;7873;52.230;12.856;2022-10-16T02:46:43;24.70;50.70
15543;DHT22;7873;52.230;12.856;2022-10-16T02:49:10;24.70;50.70
15543;DHT22;7873;52.230;12.856;2022-10-16T02:51:38;24.70;50.70
15543;DHT22;7873;52.230;12.856;2022-10-16T02:54:05;24.70;50.80
15543;DHT22;7873;52.230;12.856;2022-10-16T02:56:32;24.70;50.80
15543;DHT22;7873;52.230;12.856;2022-10-16T02:58:58;24.60;50.90
15543;DHT22;7873;52.230;12.856;2022-10-16T03:01:25;24.70;50.90
15543;DHT22;7873;52.230;12.856;2022-10-16T03:03:52;24.70;50.70
15543;DHT22;7873;52.230;12.856;2022-10-16T03:06:18;24.70;50.70
15543;DHT22;7873;52.230;12.856;2022-10-16T03:08:46;24.70;50.80
15543;DHT22;7873;52.230;12.856;2022-10-16T03:11:13;24.70;50.80
15543;DHT22;7873;52.230;12.856;2022-10-16T03:13:40;24.70;50.80
15543;DHT22;7873;52.230;12.856;2022-10-16T03:16:06;24.80;50.70
15543;DHT22;7873;52.230;12.856;2022-10-16T03:18:33;24.80;50.70
15543;DHT22;7873;52.230;12.856;2022-10-16T03:21:00;24.70;50.80
15543;DHT22;7873;52.230;12.856;2022-10-16T03:23:26;24.70;50.80
15543;DHT22;7873;52.230;12.856;2022-10-16T03:25:55;24.70;50.70
15543;DHT22;7873;52.230;12.856;2022-10-16T03:28:22;24.70;50.70
15543;DHT22;7873;52.230;12.856;2022-10-16T03:30:48;24.80;50.70
15543;DHT22;7873;52.230;12.856;2022-10-16T03:33:15;24.70;50.70
15543;DHT22;7873;52.230;12.856;2022-10-16T03:35:42;24.70;50.70
15543;DHT22;7873;52.230;12.856;2022-10-16T03:38:08;24.70;50.80
15543;DHT22;7873;52.230;12.856;2022-10-16T03:40:35;24.70;50.70
15543;DHT22;7873;52.230;12.856;2022-10-16T03:43:03;24.70;50.70
15543;DHT22;7873;52.230;12.856;2022-10-16T03:45:30;24.70;50.80
15543;DHT22;7873;52.230;12.856;2022-10-16T03:47:56;24.70;50.70
15543;DHT22;7873;52.230;12.856;2022-10-16T03:50:23;24.70;50.70
15543;DHT22;7873;52.230;12.856;2022-10-16T03:52:50;24.80;50.60
15543;DHT22;7873;52.230;12.856;2022-10-16T03:55:16;24.70;50.70
15543;DHT22;7873;52.230;12.856;2022-10-16T03:57:43;24.80;50.60
15543;DHT22;7873;52.230;12.856;2022-10-16T04:00:12;24.80;50.60
15543;DHT22;7873;52.230;12.856;2022-10-16T04:02:39;24.70;50.70
15543;DHT22;7873;52.230;12.856;2022-10-16T04:05:06;24.70;50.50
15543;DHT22;7873;52.230;12.856;2022-10-16T04:07:33;24.80;50.50
15543;DHT22;7873;52.230;12.856;2022-10-16T04:10:00;24.80;50.50
15543;DHT22;7873;52.230;12.856;2022-10-16T04:12:26;24.80;50.50
15543;DHT22;7873;52.230;12.856;2022-10-16T04:14:53;24.90;50.60
15543;DHT22;7873;52.230;12.856;2022-10-16T04:17:21;24.90;50.80
15543;DHT22;7873;52.230;12.856;2022-10-16T04:19:48;24.80;50.80
15543;DHT22;7873;52.230;12.856;2022-10-16T04:22:15;24.80;51.30
15543;DHT22;7873;52.230;12.856;2022-10-16T04:24:41;24.80;51.60
15543;DHT22;7873;52.230;12.856;2022-10-16T04:27:08;24.80;51.60
15543;DHT22;7873;52.230;12.856;2022-10-16T04:29:35;24.80;51.90
15543;DHT22;7873;52.230;12.856;2022-10-16T04:32:01;24.80;51.60
15543;DHT22;7873;52.230;12.856;2022-10-16T04:34:29;24.80;52.60
15543;DHT22;7873;52.230;12.856;2022-10-16T04:36:56;24.80;52.30
15543;DHT22;7873;52.230;12.856;2022-10-16T04:39:23;24.80;52.10
15543;DHT22;7873;52.230;12.856;2022-10-16T04:41:49;24.80;52.40
15543;DHT22;7873;52.230;12.856;2022-10-16T04:44:16;24.80;52.40
15543;DHT22;7873;52.230;12.856;2022-10-16T04:46:43;24.80;52.70
15543;DHT22;7873;52.230;12.856;2022-10-16T04:49:10;24.90;52.60
15543;DHT22;7873;52.230;12.856;2022-10-16T04:51:38;24.90;52.60
15543;DHT22;7873;52.230;12.856;2022-10-16T04:54:04;25.00;52.60
15543;DHT22;7873;52.230;12.856;2022-10-16T04:56:31;25.00;52.60
15543;DHT22;7873;52.230;12.856;2022-10-16T04:58:57;24.90;52.60
15543;DHT22;7873;52.230;12.856;2022-10-16T05:01:24;25.00;52.50
15543;DHT22;7873;52.230;12.856;2022-10-16T05:03:51;25.10;52.40
15543;DHT22;7873;52.230;12.856;2022-10-16T05:06:17;25.10;52.30
15543;DHT22;7873;52.230;12.856;2022-10-16T05:08:45;25.00;52.50
15543;DHT22;7873;52.230;12.856;2022-10-16T05:11:12;25.00;52.40
15543;DHT22;7873;52.230;12.856;2022-10-16T05:13:39;25.10;52.40
15543;DHT22;7873;52.230;12.856;2022-10-16T05:16:05;25.00;52.50
15543;DHT22;7873;52.230;12.856;2022-10-16T05:18:32;25.10;52.20
15543;DHT22;7873;52.230;12.856;2022-10-16T05:20:59;25.20;51.90
15543;DHT22;7873;52.230;12.856;2022-10-16T05:23:26;25.20;51.90
15543;DHT22;7873;52.230;12.856;2022-10-16T05:25:54;25.20;52.00
15543;DHT22;7873;52.230;12.856;2022-10-16T05:28:23;25.10;52.20
15543;DHT22;7873;52.230;12.856;2022-10-16T05:30:50;25.10;52.10
15543;DHT22;7873;52.230;12.856;2022-10-16T05:33:17;25.10;51.90
15543;DHT22;7873;52.230;12.856;2022-10-16T05:35:46;25.10;52.10
15543;DHT22;7873;52.230;12.856;2022-10-16T05:38:13;25.10;52.30
15543;DHT22;7873;52.230;12.856;2022-10-16T05:40:39;25.10;52.50
15543;DHT22;7873;52.230;12.856;2022-10-16T05:43:07;25.10;52.20
15543;DHT22;7873;52.230;12.856;2022-10-16T05:45:34;25.10;52.40
15543;DHT22;7873;52.230;12.856;2022-10-16T05:48:01;25.10;52.00
15543;DHT22;7873;52.230;12.856;2022-10-16T05:50:27;25.20;51.60
15543;DHT22;7873;52.230;12.856;2022-10-16T05:52:54;25.10;51.40
15543;DHT22;7873;52.230;12.856;2022-10-16T05:55:21;25.10;51.10
15543;DHT22;7873;52.230;12.856;2022-10-16T05:57:47;25.20;50.80
15543;DHT22;7873;52.230;12.856;2022-10-16T06:00:15;25.10;50.40
15543;DHT22;7873;52.230;12.856;2022-10-16T06:02:42;25.10;50.00
15543;DHT22;7873;52.230;12.856;2022-10-16T06:05:09;25.00;49.10
15543;DHT22;7873;52.230;12.856;2022-10-16T06:07:35;24.70;49.80
15543;DHT22;7873;52.230;12.856;2022-10-16T06:10:03;24.60;50.30
15543;DHT22;7873;52.230;12.856;2022-10-16T06:12:30;24.60;50.50
15543;DHT22;7873;52.230;12.856;2022-10-16T06:14:57;24.70;50.20
15543;DHT22;7873;52.230;12.856;2022-10-16T06:17:25;24.90;50.00
15543;DHT22;7873;52.230;12.856;2022-10-16T06:19:51;24.90;49.70
15543;DHT22;7873;52.230;12.856;2022-10-16T06:22:18;24.90;50.00
15543;DHT22;7873;52.230;12.856;2022-10-16T06:24:45;24.80;50.20
15543;DHT22;7873;52.230;12.856;2022-10-16T06:27:12;24.70;50.80
15543;DHT22;7873;52.230;12.856;2022-10-16T06:29:39;24.80;51.00
15543;DHT22;7873;52.230;12.856;2022-10-16T06:32:06;24.80;51.00
15543;DHT22;7873;52.230;12.856;2022-10-16T06:34:34;25.00;50.90
15543;DHT22;7873;52.230;12.856;2022-10-16T06:37:00;25.00;51.60
15543;DHT22;7873;52.230;12.856;2022-10-16T06:39:27;24.90;51.70
15543;DHT22;7873;52.230;12.856;2022-10-16T06:41:53;24.80;53.00
15543;DHT22;7873;52.230;12.856;2022-10-16T06:44:20;24.90;52.80
15543;DHT22;7873;52.230;12.856;2022-10-16T06:46:47;24.80;51.90
15543;DHT22;7873;52.230;12.856;2022-10-16T06:49:13;24.80;52.00
15543;DHT22;7873;52.230;12.856;2022-10-16T06:51:47;24.60;52.70
15543;DHT22;7873;52.230;12.856;2022-10-16T06:54:14;24.70;51.50
15543;DHT22;7873;52.230;12.856;2022-10-16T06:56:41;24.60;51.30
15543;DHT22;7873;52.230;12.856;2022-10-16T06:59:08;24.60;51.20
15543;DHT22;7873;52.230;12.856;2022-10-16T07:01:38;24.60;51.10
15543;DHT22;7873;52.230;12.856;2022-10-16T07:04:19;24.60;50.70
15543;DHT22;7873;52.230;12.856;2022-10-16T07:07:02;24.50;50.70
15543;DHT22;7873;52.230;12.856;2022-10-16T07:09:28;24.40;50.90
15543;DHT22;7873;52.230;12.856;2022-10-16T07:11:55;24.40;51.00
15543;DHT22;7873;52.230;12.856;2022-10-16T07:14:22;24.40;51.00
15543;DHT22;7873;52.230;12.856;2022-10-16T07:16:48;24.40;51.00
15543;DHT22;7873;52.230;12.856;2022-10-16T07:19:15;24.40;51.00
15543;DHT22;7873;52.230;12.856;2022-10-16T07:21:43;24.40;50.90
15543;DHT22;7873;52.230;12.856;2022-10-16T07:24:12;24.40;51.00
15543;DHT22;7873;52.230;12.856;2022-10-16T07:26:40;24.40;51.00
15543;DHT22;7873;52.230;12.856;2022-10-16T07:29:11;24.40;50.90
15543;DHT22;7873;52.230;12.856;2022-10-16T07:31:39;24.40;50.90
15543;DHT22;7873;52.230;12.856;2022-10-16T07:34:06;24.40;50.90
15543;DHT22;7873;52.230;12.856;2022-10-16T07:36:33;24.40;50.80
15543;DHT22;7873;52.230;12.856;2022-10-16T07:39:00;24.40;50.80
15543;DHT22;7873;52.230;12.856;2022-10-16T07:41:28;24.30;50.70
15543;DHT22;7873;52.230;12.856;2022-10-16T07:43:55;24.30;50.70
15543;DHT22;7873;52.230;12.856;2022-10-16T07:46:25;24.30;50.80
15543;DHT22;7873;52.230;12.856;2022-10-16T07:48:52;24.30;50.80
15543;DHT22;7873;52.230;12.856;2022-10-16T07:51:19;24.30;51.00
15543;DHT22;7873;52.230;12.856;2022-10-16T07:53:48;24.30;51.00
15543;DHT22;7873;52.230;12.856;2022-10-16T07:56:15;24.30;51.00
15543;DHT22;7873;52.230;12.856;2022-10-16T07:58:44;24.30;51.00
15543;DHT22;7873;52.230;12.856;2022-10-16T08:01:12;24.20;51.00
15543;DHT22;7873;52.230;12.856;2022-10-16T08:03:41;24.20;51.00
15543;DHT22;7873;52.230;12.856;2022-10-16T08:06:08;24.20;51.00
15543;DHT22;7873;52.230;12.856;2022-10-16T08:08:34;24.20;51.00
15543;DHT22;7873;52.230;12.856;2022-10-16T08:11:01;24.20;51.00
15543;DHT22;7873;52.230;12.856;2022-10-16T08:13:29;24.20;51.10
15543;DHT22;7873;52.230;12.856;2022-10-16T08:15:57;24.20;51.00
15543;DHT22;7873;52.230;12.856;2022-10-16T08:18:24;24.20;51.00
15543;DHT22;7873;52.230;12.856;2022-10-16T08:20:54;24.20;51.00
15543;DHT22;7873;52.230;12.856;2022-10-16T08:23:22;24.20;51.00
15543;DHT22;7873;52.230;12.856;2022-10-16T08:25:48;24.20;50.90
15543;DHT22;7873;52.230;12.856;2022-10-16T08:28:15;24.20;51.00
15543;DHT22;7873;52.230;12.856;2022-10-16T08:30:42;24.20;51.20
15543;DHT22;7873;52.230;12.856;2022-10-16T08:33:10;24.20;52.10
15543;DHT22;7873;52.230;12.856;2022-10-16T08:35:37;24.10;52.50
15543;DHT22;7873;52.230;12.856;2022-10-16T08:38:03;24.10;52.80
15543;DHT22;7873;52.230;12.856;2022-10-16T08:40:31;24.10;52.60
15543;DHT22;7873;52.230;12.856;2022-10-16T08:43:03;24.00;53.30
15543;DHT22;7873;52.230;12.856;2022-10-16T08:45:43;23.80;53.80
15543;DHT22;7873;52.230;12.856;2022-10-16T08:48:21;24.10;53.20
15543;DHT22;7873;52.230;12.856;2022-10-16T08:50:51;24.00;53.10
15543;DHT22;7873;52.230;12.856;2022-10-16T08:53:20;24.00;53.30
15543;DHT22;7873;52.230;12.856;2022-10-16T08:55:50;23.90;53.40
15543;DHT22;7873;52.230;12.856;2022-10-16T08:58:18;23.90;53.60
15543;DHT22;7873;52.230;12.856;2022-10-16T09:00:47;23.80;54.00
15543;DHT22;7873;52.230;12.856;2022-10-16T09:03:17;23.70;54.20
15543;DHT22;7873;52.230;12.856;2022-10-16T09:06:00;23.60;54.30
15543;DHT22;7873;52.230;12.856;2022-10-16T09:08:39;23.70;54.40
15543;DHT22;7873;52.230;12.856;2022-10-16T09:11:14;24.00;53.20
15543;DHT22;7873;52.230;12.856;2022-10-16T09:13:50;24.20;53.00
15543;DHT22;7873;52.230;12.856;2022-10-16T09:16:22;24.30;53.10
15543;DHT22;7873;52.230;12.856;2022-10-16T09:18:57;24.30;52.60
15543;DHT22;7873;52.230;12.856;2022-10-16T09:21:28;24.30;53.30
15543;DHT22;7873;52.230;12.856;2022-10-16T09:23:57;24.40;53.30
15543;DHT22;7873;52.230;12.856;2022-10-16T09:26:25;24.30;53.00
15543;DHT22;7873;52.230;12.856;2022-10-16T09:28:52;24.20;53.70
15543;DHT22;7873;52.230;12.856;2022-10-16T09:31:20;24.20;54.00
15543;DHT22;7873;52.230;12.856;2022-10-16T09:33:49;24.20;54.60
15543;DHT22;7873;52.230;12.856;2022-10-16T09:36:20;24.20;54.50
15543;DHT22;7873;52.230;12.856;2022-10-16T09:38:48;24.20;54.70
15543;DHT22;7873;52.230;12.856;2022-10-16T09:41:16;24.30;54.30
15543;DHT22;7873;52.230;12.856;2022-10-16T09:43:49;24.30;55.20
15543;DHT22;7873;52.230;12.856;2022-10-16T09:46:21;24.30;55.50
15543;DHT22;7873;52.230;12.856;2022-10-16T09:48:51;24.40;56.00
15543;DHT22;7873;52.230;12.856;2022-10-16T09:51:23;24.50;56.30
15543;DHT22;7873;52.230;12.856;2022-10-16T09:53:54;24.60;56.30
15543;DHT22;7873;52.230;12.856;2022-10-16T09:56:22;24.60;56.20
15543;DHT22;7873;52.230;12.856;2022-10-16T09:58:50;24.70;56.10
15543;DHT22;7873;52.230;12.856;2022-10-16T10:01:18;24.70;56.20
15543;DHT22;7873;52.230;12.856;2022-10-16T10:03:46;24.70;56.00
15543;DHT22;7873;52.230;12.856;2022-10-16T10:06:23;24.80;55.70
15543;DHT22;7873;52.230;12.856;2022-10-16T10:08:52;24.80;55.60
15543;DHT22;7873;52.230;12.856;2022-10-16T10:11:36;24.80;55.50
15543;DHT22;7873;52.230;12.856;2022-10-16T10:14:19;24.80;55.40
15543;DHT22;7873;52.230;12.856;2022-10-16T10:16:48;24.70;55.50
15543;DHT22;7873;52.230;12.856;2022-10-16T10:19:17;24.60;55.70
15543;DHT22;7873;52.230;12.856;2022-10-16T10:21:47;24.60;54.90
15543;DHT22;7873;52.230;12.856;2022-10-16T10:24:14;24.60;54.50
15543;DHT22;7873;52.230;12.856;2022-10-16T10:26:44;24.60;53.90
15543;DHT22;7873;52.230;12.856;2022-10-16T10:29:17;24.70;53.70
15543;DHT22;7873;52.230;12.856;2022-10-16T10:31:55;24.70;53.30
15543;DHT22;7873;52.230;12.856;2022-10-16T10:34:34;24.70;53.20
15543;DHT22;7873;52.230;12.856;2022-10-16T10:37:18;24.70;52.90
15543;DHT22;7873;52.230;12.856;2022-10-16T10:39:56;24.70;52.60
15543;DHT22;7873;52.230;12.856;2022-10-16T10:42:27;24.70;52.50
15543;DHT22;7873;52.230;12.856;2022-10-16T10:45:04;24.70;52.30
15543;DHT22;7873;52.230;12.856;2022-10-16T10:47:45;24.70;52.20
15543;DHT22;7873;52.230;12.856;2022-10-16T10:50:21;24.70;52.10
15543;DHT22;7873;52.230;12.856;2022-10-16T10:52:56;24.60;52.00
15543;DHT22;7873;52.230;12.856;2022-10-16T10:55:30;24.60;52.00
15543;DHT22;7873;52.230;12.856;2022-10-16T10:58:12;24.60;51.90
15543;DHT22;7873;52.230;12.856;2022-10-16T11:00:53;24.60;51.90
15543;DHT22;7873;52.230;12.856;2022-10-16T11:03:35;24.60;51.90
15543;DHT22;7873;52.230;12.856;2022-10-16T11:06:26;24.60;51.90
15543;DHT22;7873;52.230;12.856;2022-10-16T11:08:59;24.60;51.80
15543;DHT22;7873;52.230;12.856;2022-10-16T11:11:29;24.60;51.60
15543;DHT22;7873;52.230;12.856;2022-10-16T11:14:02;24.60;51.50
15543;DHT22;7873;52.230;12.856;2022-10-16T11:16:36;24.60;51.50
15543;DHT22;7873;52.230;12.856;2022-10-16T11:19:10;24.60;51.40
15543;DHT22;7873;52.230;12.856;2022-10-16T11:21:41;24.60;51.40
15543;DHT22;7873;52.230;12.856;2022-10-16T11:24:16;24.60;51.30
15543;DHT22;7873;52.230;12.856;2022-10-16T11:26:48;24.60;51.20
15543;DHT22;7873;52.230;12.856;2022-10-16T11:29:17;24.60;51.20
15543;DHT22;7873;52.230;12.856;2022-10-16T11:31:49;24.60;51.20
15543;DHT22;7873;52.230;12.856;2022-10-16T11:34:21;24.60;51.10
15543;DHT22;7873;52.230;12.856;2022-10-16T11:36:53;24.60;51.10
15543;DHT22;7873;52.230;12.856;2022-10-16T11:39:28;24.70;51.20
15543;DHT22;7873;52.230;12.856;2022-10-16T11:41:56;24.60;51.40
15543;DHT22;7873;52.230;12.856;2022-10-16T11:44:38;24.50;51.30
15543;DHT22;7873;52.230;12.856;2022-10-16T11:47:19;24.50;51.40
15543;DHT22;7873;52.230;12.856;2022-10-16T11:49:53;24.50;51.40
15543;DHT22;7873;52.230;12.856;2022-10-16T11:52:27;24.50;51.50
15543;DHT22;7873;52.230;12.856;2022-10-16T11:54:59;24.40;51.60
15543;DHT22;7873;52.230;12.856;2022-10-16T11:57:31;24.40;51.60
15543;DHT22;7873;52.230;12.856;2022-10-16T12:00:00;24.40;51.60
15543;DHT22;7873;52.230;12.856;2022-10-16T12:02:38;24.50;51.40
15543;DHT22;7873;52.230;12.856;2022-10-16T12:05:18;24.50;51.20
15543;DHT22;7873;52.230;12.856;2022-10-16T12:07:51;24.60;51.10
15543;DHT22;7873;52.230;12.856;2022-10-16T12:10:26;24.60;50.90
15543;DHT22;7873;52.230;12.856;2022-10-16T12:12:56;24.60;50.90
15543;DHT22;7873;52.230;12.856;2022-10-16T12:15:24;24.60;50.80
15543;DHT22;7873;52.230;12.856;2022-10-16T12:17:52;24.60;50.80
15543;DHT22;7873;52.230;12.856;2022-10-16T12:20:24;24.60;50.80
15543;DHT22;7873;52.230;12.856;2022-10-16T12:22:53;24.60;50.70
15543;DHT22;7873;52.230;12.856;2022-10-16T12:25:23;24.60;50.70
15543;DHT22;7873;52.230;12.856;2022-10-16T12:27:54;24.60;50.80
15543;DHT22;7873;52.230;12.856;2022-10-16T12:30:23;24.60;50.70
15543;DHT22;7873;52.230;12.856;2022-10-16T12:32:55;24.60;50.70
15543;DHT22;7873;52.230;12.856;2022-10-16T12:35:23;24.60;50.60
15543;DHT22;7873;52.230;12.856;2022-10-16T12:37:52;24.60;50.50
15543;DHT22;7873;52.230;12.856;2022-10-16T12:40:27;24.60;50.50
15543;DHT22;7873;52.230;12.856;2022-10-16T12:42:57;24.60;50.80
15543;DHT22;7873;52.230;12.856;2022-10-16T12:45:25;24.60;51.00
15543;DHT22;7873;52.230;12.856;2022-10-16T12:47:54;24.50;51.30
15543;DHT22;7873;52.230;12.856;2022-10-16T12:50:33;24.40;50.60
15543;DHT22;7873;52.230;12.856;2022-10-16T12:53:02;24.30;50.40
15543;DHT22;7873;52.230;12.856;2022-10-16T12:55:34;24.20;50.40
15543;DHT22;7873;52.230;12.856;2022-10-16T12:58:22;24.20;50.10
15543;DHT22;7873;52.230;12.856;2022-10-16T13:01:17;24.20;51.00
15543;DHT22;7873;52.230;12.856;2022-10-16T13:04:00;24.20;51.00
15543;DHT22;7873;52.230;12.856;2022-10-16T13:06:38;24.20;51.70
15543;DHT22;7873;52.230;12.856;2022-10-16T13:09:14;24.30;51.80
15543;DHT22;7873;52.230;12.856;2022-10-16T13:11:54;24.40;51.60
15543;DHT22;7873;52.230;12.856;2022-10-16T13:17:29;24.50;51.90
15543;DHT22;7873;52.230;12.856;2022-10-16T13:20:06;24.50;52.20
15543;DHT22;7873;52.230;12.856;2022-10-16T13:22:45;24.50;52.40
15543;DHT22;7873;52.230;12.856;2022-10-16T13:25:22;24.60;52.60
15543;DHT22;7873;52.230;12.856;2022-10-16T13:27:56;24.60;53.30
15543;DHT22;7873;52.230;12.856;2022-10-16T13:30:27;24.60;52.90
15543;DHT22;7873;52.230;12.856;2022-10-16T13:32:58;24.70;53.20
15543;DHT22;7873;52.230;12.856;2022-10-16T13:35:27;24.80;53.30
15543;DHT22;7873;52.230;12.856;2022-10-16T13:38:06;24.80;53.80
15543;DHT22;7873;52.230;12.856;2022-10-16T13:40:48;24.80;53.30
15543;DHT22;7873;52.230;12.856;2022-10-16T13:43:18;24.80;53.10
15543;DHT22;7873;52.230;12.856;2022-10-16T13:45:56;24.70;52.40
15543;DHT22;7873;52.230;12.856;2022-10-16T13:48:24;24.70;52.30
15543;DHT22;7873;52.230;12.856;2022-10-16T13:50:58;24.70;52.30
15543;DHT22;7873;52.230;12.856;2022-10-16T13:53:26;24.70;51.90
15543;DHT22;7873;52.230;12.856;2022-10-16T13:55:52;24.70;51.50
15543;DHT22;7873;52.230;12.856;2022-10-16T13:58:20;24.80;49.00
15543;DHT22;7873;52.230;12.856;2022-10-16T14:00:54;24.80;49.70
15543;DHT22;7873;52.230;12.856;2022-10-16T14:03:23;24.80;48.90
15543;DHT22;7873;52.230;12.856;2022-10-16T14:05:51;24.70;49.00
15543;DHT22;7873;52.230;12.856;2022-10-16T14:08:19;24.70;47.70
15543;DHT22;7873;52.230;12.856;2022-10-16T14:10:47;24.60;48.30
15543;DHT22;7873;52.230;12.856;2022-10-16T14:13:15;24.60;48.40
15543;DHT22;7873;52.230;12.856;2022-10-16T14:15:46;24.70;48.50
15543;DHT22;7873;52.230;12.856;2022-10-16T14:18:17;24.80;48.30
15543;DHT22;7873;52.230;12.856;2022-10-16T14:20:46;24.80;48.40
15543;DHT22;7873;52.230;12.856;2022-10-16T14:23:20;24.80;47.60
15543;DHT22;7873;52.230;12.856;2022-10-16T14:25:49;24.80;47.90
15543;DHT22;7873;52.230;12.856;2022-10-16T14:28:17;24.70;48.10
15543;DHT22;7873;52.230;12.856;2022-10-16T14:30:51;24.70;47.00
15543;DHT22;7873;52.230;12.856;2022-10-16T14:33:23;24.70;47.30
15543;DHT22;7873;52.230;12.856;2022-10-16T14:35:59;24.70;46.70
15543;DHT22;7873;52.230;12.856;2022-10-16T14:38:28;24.80;46.00
15543;DHT22;7873;52.230;12.856;2022-10-16T14:40:56;24.80;46.00
15543;DHT22;7873;52.230;12.856;2022-10-16T14:43:26;24.80;45.40
15543;DHT22;7873;52.230;12.856;2022-10-16T14:45:59;24.80;45.50
15543;DHT22;7873;52.230;12.856;2022-10-16T14:48:28;24.90;45.50
15543;DHT22;7873;52.230;12.856;2022-10-16T14:50:55;24.90;45.50
15543;DHT22;7873;52.230;12.856;2022-10-16T14:53:22;25.00;45.20
15543;DHT22;7873;52.230;12.856;2022-10-16T14:55:49;25.00;45.20
15543;DHT22;7873;52.230;12.856;2022-10-16T14:58:16;25.00;45.10
15543;DHT22;7873;52.230;12.856;2022-10-16T15:00:45;25.00;44.70
15543;DHT22;7873;52.230;12.856;2022-10-16T15:03:14;25.00;44.20
15543;DHT22;7873;52.230;12.856;2022-10-16T15:05:40;25.00;43.80
15543;DHT22;7873;52.230;12.856;2022-10-16T15:08:07;24.90;44.00
15543;DHT22;7873;52.230;12.856;2022-10-16T15:10:36;24.80;43.40
15543;DHT22;7873;52.230;12.856;2022-10-16T15:13:05;24.80;43.80
15543;DHT22;7873;52.230;12.856;2022-10-16T15:15:33;24.80;43.40
15543;DHT22;7873;52.230;12.856;2022-10-16T15:18:03;24.80;43.80
15543;DHT22;7873;52.230;12.856;2022-10-16T15:20:32;24.60;44.10
15543;DHT22;7873;52.230;12.856;2022-10-16T15:23:00;24.40;45.50
15543;DHT22;7873;52.230;12.856;2022-10-16T15:25:30;24.60;44.90
15543;DHT22;7873;52.230;12.856;2022-10-16T15:27:58;24.60;45.00
15543;DHT22;7873;52.230;12.856;2022-10-16T15:30:25;24.70;45.20
15543;DHT22;7873;52.230;12.856;2022-10-16T15:32:52;24.70;45.60
15543;DHT22;7873;52.230;12.856;2022-10-16T15:35:19;24.70;45.70
15543;DHT22;7873;52.230;12.856;2022-10-16T15:37:47;24.80;45.80
15543;DHT22;7873;52.230;12.856;2022-10-16T15:40:15;24.90;45.80
15543;DHT22;7873;52.230;12.856;2022-10-16T15:42:43;24.70;46.60
15543;DHT22;7873;52.230;12.856;2022-10-16T15:45:10;24.60;47.40
15543;DHT22;7873;52.230;12.856;2022-10-16T15:47:38;24.70;48.50
15543;DHT22;7873;52.230;12.856;2022-10-16T15:50:05;24.60;48.00